KSEF

Sebring Regional Airport

Sebring, Florida, USA
METAR KSEF 100615Z AUTO 28005KT 10SM CLR 18/15 A2996 RMK AO2 T01780152
Observed Flight Rules
Dec-10 @ 06:15 UTC (24 minutes ago) Visual Flight Rules
Wind Visibility Clouds
280° at 5 knots 10 miles
  • Clear skies
Temperatures Readings
Current 18°C / 64°F
Dewpoint 15°C / 59°F
Humidity 83%
Altimeter 29.96" Hg
Pressure 1015 hPa
Elevation 19
METAR KSEF 100615Z AUTO 28005KT 10SM CLR 18/15 A2996 RMK AO2 T01780152
Observed Flight Rules
Dec-10 @ 06:15 UTC
(24 minutes ago)
VFR
Wind Visibility
280° at 5 knots 10 miles
Clouds
  • Clear skies
Temperature Dewpoint
18°C / 64°F 15°C / 59°F
Humidity Altimeter Pressure
83% 29.96" Hg 1015 hPa